createdAt,value
2022-10-28T00:00:00.766Z,15.2
2022-10-28T00:03:00.930Z,15.2
2022-10-28T00:06:00.728Z,15.2
2022-10-28T00:09:00.697Z,15.2
2022-10-28T00:12:00.750Z,15.2
2022-10-28T00:15:00.712Z,15.2
2022-10-28T00:18:00.717Z,15.2
2022-10-28T00:21:00.697Z,15.2
2022-10-28T00:24:00.717Z,15.2
2022-10-28T00:27:00.725Z,15
2022-10-28T00:30:00.749Z,15
2022-10-28T00:33:00.694Z,15
2022-10-28T00:36:04.387Z,15
2022-10-28T00:39:00.773Z,15
2022-10-28T00:42:00.731Z,15
2022-10-28T00:45:00.692Z,15
2022-10-28T00:48:00.716Z,15
2022-10-28T00:51:00.707Z,15
2022-10-28T00:54:00.756Z,15
2022-10-28T00:57:00.687Z,14.8
2022-10-28T01:00:00.771Z,14.8
2022-10-28T01:03:00.725Z,14.8
2022-10-28T01:06:00.726Z,14.8
2022-10-28T01:09:00.729Z,14.5
2022-10-28T01:12:00.743Z,14.5
2022-10-28T01:15:00.766Z,14.5
2022-10-28T01:18:00.710Z,14.5
2022-10-28T01:21:00.750Z,14.5
2022-10-28T01:24:00.712Z,14.5
2022-10-28T01:27:00.736Z,14.5
2022-10-28T01:30:00.742Z,14.5
2022-10-28T01:33:00.703Z,14.5
2022-10-28T01:36:00.918Z,14.5
2022-10-28T01:39:00.717Z,14.5
2022-10-28T01:42:00.781Z,14.5
2022-10-28T01:45:00.736Z,14.5
2022-10-28T01:48:00.750Z,14.5
2022-10-28T01:51:00.712Z,14.6
2022-10-28T01:54:00.732Z,14.6
2022-10-28T01:57:00.709Z,14.6
2022-10-28T02:00:00.720Z,14.6
2022-10-28T02:03:00.729Z,14.6
2022-10-28T02:06:00.802Z,14.6
2022-10-28T02:09:00.742Z,14.6
2022-10-28T02:12:00.772Z,14.6
2022-10-28T02:15:00.932Z,14.6
2022-10-28T02:18:00.897Z,14.6
2022-10-28T02:21:00.736Z,14.6
2022-10-28T02:24:00.739Z,14.6
2022-10-28T02:27:00.696Z,14.6
2022-10-28T02:30:00.713Z,14.6
2022-10-28T02:33:00.701Z,14.6
2022-10-28T02:36:00.763Z,14.6
2022-10-28T02:39:00.715Z,14.6
2022-10-28T02:42:00.727Z,14.6
2022-10-28T02:45:00.710Z,14.6
2022-10-28T02:48:00.729Z,14.6
2022-10-28T02:51:00.730Z,14.4
2022-10-28T02:54:00.708Z,14.4
2022-10-28T02:57:00.719Z,14.4
2022-10-28T03:00:00.769Z,14.4
2022-10-28T03:03:00.761Z,14.4
2022-10-28T03:06:00.719Z,14.4
2022-10-28T03:09:00.766Z,14.4
2022-10-28T03:12:00.786Z,14.4
2022-10-28T03:15:00.751Z,14.4
2022-10-28T03:18:00.822Z,14.4
2022-10-28T03:21:00.729Z,14.4
2022-10-28T03:24:00.751Z,14.4
2022-10-28T03:27:00.725Z,14.4
2022-10-28T03:30:00.758Z,14.4
2022-10-28T03:33:00.743Z,14.4
2022-10-28T03:36:00.717Z,14.4
2022-10-28T03:39:00.809Z,14.4
2022-10-28T03:42:00.705Z,14.3
2022-10-28T03:45:00.703Z,14.2
2022-10-28T03:48:00.824Z,14.2
2022-10-28T03:51:00.745Z,14.2
2022-10-28T03:54:00.848Z,14.2
2022-10-28T03:57:00.773Z,14.2
2022-10-28T04:00:00.818Z,14.2
2022-10-28T04:03:00.686Z,14.2
2022-10-28T04:06:00.770Z,14.2
2022-10-28T04:09:00.725Z,14.2
2022-10-28T04:12:00.931Z,14.2
2022-10-28T04:15:00.734Z,14
2022-10-28T04:18:00.741Z,14
2022-10-28T04:21:00.718Z,14
2022-10-28T04:24:00.766Z,14
2022-10-28T04:27:00.714Z,14
2022-10-28T04:30:00.818Z,14
2022-10-28T04:33:00.701Z,14
2022-10-28T04:36:00.759Z,14
2022-10-28T04:39:00.809Z,14
2022-10-28T04:42:00.711Z,14
2022-10-28T04:45:00.749Z,14
2022-10-28T04:48:00.735Z,14
2022-10-28T04:51:00.819Z,14
2022-10-28T04:54:00.695Z,14
2022-10-28T04:57:00.753Z,14
2022-10-28T05:00:00.711Z,14
2022-10-28T05:03:00.772Z,14
2022-10-28T05:06:00.710Z,14
2022-10-28T05:09:00.804Z,14
2022-10-28T05:12:00.739Z,14
2022-10-28T05:15:00.804Z,14
2022-10-28T05:18:00.765Z,14
2022-10-28T05:21:00.711Z,14
2022-10-28T05:24:00.774Z,14
2022-10-28T05:27:00.843Z,14
2022-10-28T05:30:00.781Z,14
2022-10-28T05:33:01.448Z,14
2022-10-28T05:36:00.824Z,14
2022-10-28T05:39:00.761Z,14
2022-10-28T05:42:00.789Z,14
2022-10-28T05:45:00.758Z,14
2022-10-28T05:48:00.870Z,14
2022-10-28T05:51:00.747Z,14
2022-10-28T05:54:01.587Z,14
2022-10-28T05:57:00.694Z,13.9
2022-10-28T06:00:01.599Z,13.9
2022-10-28T06:03:00.745Z,13.9
2022-10-28T06:06:00.775Z,13.9
2022-10-28T06:09:00.842Z,13.9
2022-10-28T06:11:59.249Z,13.9
2022-10-28T06:14:59.235Z,13.9
2022-10-28T06:17:59.229Z,13.9
2022-10-28T06:20:59.703Z,13.9
2022-10-28T06:23:59.265Z,13.9
2022-10-28T06:26:59.238Z,13.9
2022-10-28T06:29:59.387Z,13.8
2022-10-28T06:32:59.255Z,13.8
2022-10-28T06:35:59.328Z,13.8
2022-10-28T06:38:59.215Z,13.8
2022-10-28T06:41:59.473Z,13.8
2022-10-28T06:44:59.229Z,13.8
2022-10-28T06:48:00.784Z,13.8
2022-10-28T06:51:00.735Z,13.8
2022-10-28T06:54:00.796Z,13.8
2022-10-28T06:57:00.983Z,13.8
2022-10-28T07:00:00.924Z,13.8
2022-10-28T07:03:01.391Z,13.8
2022-10-28T07:06:00.847Z,13.8
2022-10-28T07:09:00.801Z,13.8
2022-10-28T07:12:05.584Z,13.8
2022-10-28T07:15:00.832Z,13.8
2022-10-28T07:18:00.832Z,13.8
2022-10-28T07:21:00.808Z,13.8
2022-10-28T07:24:00.772Z,13.8
2022-10-28T07:27:00.841Z,14.1
2022-10-28T07:30:00.811Z,14.1
2022-10-28T07:33:00.893Z,14.1
2022-10-28T07:36:00.850Z,14.1
2022-10-28T07:39:00.866Z,14.1
2022-10-28T07:42:00.830Z,14.1
2022-10-28T07:45:00.826Z,14.1
2022-10-28T07:48:00.900Z,14.1
2022-10-28T07:51:00.835Z,14.1
2022-10-28T07:54:00.803Z,14.1
2022-10-28T07:57:00.845Z,14.1
2022-10-28T08:00:00.936Z,14.1
2022-10-28T08:03:00.767Z,14.1
2022-10-28T08:06:00.808Z,14.1
2022-10-28T08:09:00.804Z,14.4
2022-10-28T08:12:00.852Z,14.4
2022-10-28T08:15:00.775Z,15
2022-10-28T08:18:00.821Z,15.5
2022-10-28T08:24:00.790Z,16.2
2022-10-28T08:27:00.829Z,16.6
2022-10-28T08:30:00.853Z,16.6
2022-10-28T08:33:00.749Z,17.1
2022-10-28T08:36:00.744Z,17.1
2022-10-28T08:39:00.742Z,17.1
2022-10-28T08:42:00.824Z,17.6
2022-10-28T08:45:00.750Z,17.6
2022-10-28T08:51:00.771Z,18.1
2022-10-28T08:54:00.873Z,18.1
2022-10-28T08:57:00.744Z,18.1
2022-10-28T09:00:00.843Z,18.1
2022-10-28T09:03:00.779Z,18.1
2022-10-28T09:06:00.774Z,18.6
2022-10-28T09:12:00.826Z,19.1
2022-10-28T09:18:00.787Z,19.6
2022-10-28T09:27:00.847Z,19.7
2022-10-28T09:42:00.817Z,20
2022-10-28T09:45:01.053Z,20
2022-10-28T09:51:00.790Z,20
2022-10-28T09:54:00.771Z,20
2022-10-28T09:57:00.736Z,20
2022-10-28T10:00:00.914Z,20
2022-10-28T10:03:00.882Z,20
2022-10-28T10:06:00.763Z,20
2022-10-28T10:09:00.880Z,20
2022-10-28T10:12:00.779Z,20
2022-10-28T10:18:00.823Z,20
2022-10-28T10:21:00.832Z,20
2022-10-28T10:24:00.829Z,20
2022-10-28T10:30:00.802Z,20
2022-10-28T10:33:00.877Z,20
2022-10-28T10:42:00.803Z,20
2022-10-28T10:45:00.736Z,20
2022-10-28T10:48:00.829Z,20.3
2022-10-28T10:51:00.780Z,20.3
2022-10-28T10:54:00.788Z,20.3
2022-10-28T10:57:00.777Z,20.3
2022-10-28T11:00:00.833Z,20.3
2022-10-28T11:09:00.980Z,20.7
2022-10-28T11:15:00.822Z,20.8
2022-10-28T11:24:00.785Z,21.3
2022-10-28T11:39:00.808Z,21.3
2022-10-28T11:42:00.791Z,21.3
2022-10-28T11:45:00.779Z,21.8
2022-10-28T11:48:01.055Z,21.8
2022-10-28T11:57:00.804Z,21.8
2022-10-28T12:00:00.946Z,21.8
2022-10-28T12:06:00.779Z,21.9
2022-10-28T12:09:00.863Z,21.9
2022-10-28T12:12:00.836Z,21.9
2022-10-28T12:18:00.785Z,21.9
2022-10-28T12:24:00.811Z,22.1
2022-10-28T12:27:00.957Z,22.1
2022-10-28T12:33:00.802Z,22.1
2022-10-28T12:36:00.757Z,22.1
2022-10-28T12:42:00.763Z,22.1
2022-10-28T12:51:00.766Z,22.1
2022-10-28T13:00:00.846Z,22.3
2022-10-28T13:12:00.767Z,22.3
2022-10-28T13:15:00.955Z,22.3
2022-10-28T13:21:00.764Z,22.3
2022-10-28T13:27:00.902Z,22.3
2022-10-28T13:33:00.787Z,22.3
2022-10-28T13:36:00.764Z,22.3
2022-10-28T13:39:00.841Z,22.3
2022-10-28T13:45:00.841Z,22.3
2022-10-28T13:48:00.824Z,22.3
2022-10-28T14:00:00.878Z,22.1
2022-10-28T14:03:01.660Z,22.1
2022-10-28T14:06:01.098Z,22.1
2022-10-28T14:09:00.822Z,22.1
2022-10-28T14:12:00.769Z,22.1
2022-10-28T14:18:23.004Z,22.1
2022-10-28T14:21:01.162Z,22.1
2022-10-28T14:24:00.783Z,22.1
2022-10-28T14:36:00.801Z,22.1
2022-10-28T14:42:00.855Z,22.1
2022-10-28T14:54:00.787Z,22.1
2022-10-28T15:09:00.729Z,21.6
2022-10-28T15:15:00.727Z,21.6
2022-10-28T15:18:00.766Z,21.6
2022-10-28T15:24:00.837Z,21.6
2022-10-28T15:27:00.732Z,21.6
2022-10-28T15:30:00.825Z,21.6
2022-10-28T15:33:00.761Z,21.6
2022-10-28T15:36:00.772Z,21.6
2022-10-28T15:42:00.757Z,21.1
2022-10-28T15:45:00.794Z,21.1
2022-10-28T15:48:00.766Z,21.1
2022-10-28T15:51:00.799Z,21.1
2022-10-28T15:54:00.758Z,21
2022-10-28T16:03:01.809Z,21
2022-10-28T16:06:00.731Z,21
2022-10-28T16:18:00.766Z,21
2022-10-28T16:21:00.972Z,21
2022-10-28T16:30:00.819Z,20.6
2022-10-28T16:33:00.909Z,20.6
2022-10-28T16:36:00.871Z,20.6
2022-10-28T16:39:00.790Z,20.6
2022-10-28T16:42:00.794Z,20.6
2022-10-28T16:45:00.767Z,20.6
2022-10-28T16:48:00.967Z,20.6
2022-10-28T17:00:00.746Z,20.1
2022-10-28T17:06:00.726Z,20.1
2022-10-28T17:12:00.728Z,20.1
2022-10-28T17:15:00.735Z,20.1
2022-10-28T17:18:00.812Z,20.1
2022-10-28T17:21:00.739Z,19.9
2022-10-28T17:27:00.730Z,19.9
2022-10-28T17:33:00.752Z,19.9
2022-10-28T17:36:00.748Z,19.9
2022-10-28T17:39:00.723Z,19.9
2022-10-28T17:42:00.797Z,19.9
2022-10-28T17:45:00.734Z,19.9
2022-10-28T17:48:00.852Z,19.8
2022-10-28T17:54:00.780Z,19.8
2022-10-28T17:57:00.821Z,19.8
2022-10-28T18:09:00.766Z,19.9
2022-10-28T18:12:00.770Z,19.9
2022-10-28T18:15:00.839Z,19.9
2022-10-28T18:18:00.710Z,19.9
2022-10-28T18:27:00.753Z,19.9
2022-10-28T18:30:00.774Z,19.9
2022-10-28T18:33:00.760Z,19.9
2022-10-28T18:36:00.856Z,19.9
2022-10-28T18:42:00.764Z,20.1
2022-10-28T18:48:00.820Z,20
2022-10-28T18:51:00.722Z,20
2022-10-28T18:54:00.951Z,20
2022-10-28T19:00:19.980Z,20
2022-10-28T19:03:00.780Z,20
2022-10-28T19:06:00.817Z,20
2022-10-28T19:09:00.762Z,20
2022-10-28T19:15:00.712Z,19.9
2022-10-28T19:18:00.777Z,19.9
2022-10-28T19:30:00.964Z,19.9
2022-10-28T19:33:00.790Z,19.9
2022-10-28T19:36:00.766Z,19.9
2022-10-28T19:45:00.774Z,19.6
2022-10-28T19:48:00.707Z,19.4
2022-10-28T19:54:00.878Z,19.4
2022-10-28T19:57:01.167Z,19.4
2022-10-28T20:00:00.777Z,19.4
2022-10-28T20:03:00.944Z,19.4
2022-10-28T20:06:00.797Z,19.4
2022-10-28T20:09:00.780Z,19.2
2022-10-28T20:12:00.714Z,19.2
2022-10-28T20:15:00.789Z,19.2
2022-10-28T20:18:00.765Z,19.1
2022-10-28T20:21:00.831Z,19.1
2022-10-28T20:27:00.800Z,19.1
2022-10-28T20:30:00.784Z,19
2022-10-28T20:33:00.747Z,19
2022-10-28T20:39:00.725Z,19
2022-10-28T20:42:00.762Z,19
2022-10-28T20:48:00.789Z,19
2022-10-28T20:51:00.751Z,19
2022-10-28T21:03:01.890Z,18.7
2022-10-28T21:18:00.828Z,18.4
2022-10-28T21:21:00.723Z,18.4
2022-10-28T21:27:00.762Z,18.4
2022-10-28T21:30:00.889Z,18.4
2022-10-28T21:33:00.811Z,18.3
2022-10-28T21:39:00.738Z,18.3
2022-10-28T21:42:00.921Z,18.2
2022-10-28T21:48:00.742Z,18.2
2022-10-28T22:00:00.938Z,18.2
2022-10-28T22:03:00.884Z,18.2
2022-10-28T22:09:00.812Z,18.2
2022-10-28T22:18:00.776Z,18.2
2022-10-28T22:21:00.775Z,17.8
2022-10-28T22:27:00.766Z,17.7
2022-10-28T22:30:00.817Z,17.7
2022-10-28T22:36:00.738Z,17.7
2022-10-28T22:39:00.874Z,17.7
2022-10-28T22:42:00.794Z,17.7
2022-10-28T22:48:00.771Z,17.6
2022-10-28T22:54:00.773Z,17.6
2022-10-28T22:57:00.723Z,17.6
2022-10-28T23:00:00.775Z,17.6
2022-10-28T23:03:01.252Z,17.6
2022-10-28T23:06:00.756Z,17.6
2022-10-28T23:15:00.713Z,17.3
2022-10-28T23:18:00.773Z,17.3
2022-10-28T23:24:00.760Z,17.3
2022-10-28T23:27:00.754Z,17.3
2022-10-28T23:30:00.722Z,17.3
2022-10-28T23:33:00.719Z,17.3
2022-10-28T23:36:00.732Z,17.3
2022-10-28T23:39:00.739Z,17.3
2022-10-28T23:42:00.765Z,17.3
2022-10-28T23:45:00.776Z,17.3
2022-10-28T23:48:00.831Z,17.3
2022-10-28T23:51:00.718Z,17.3
2022-10-28T23:57:00.695Z,17.3
